Terminal Aerodrome Forecast
Issued by NWS Jacksonville, FL

Home | Current Version | Previous Version | Text Only | Print | Product List | Glossary On
Versions: 1 2 3 4 5 6 7 8 9 10 11 12 13 14 15 16 17 18 19 20 21 22 23 24
000
FTUS42 KJAX 241218 AAA
TAFGNV
TAF AMD
KGNV 241218Z 2412/2512 00000KT 1/2SM FG VV002
      TEMPO 2412/2413 1/4SM FG VV001
     FM241330 14003KT 1SM BR BKN003
     FM241400 15006KT P6SM FEW015
     FM241800 16007KT P6SM BKN040
     FM250200 15004KT P6SM VCSH SCT040 BKN060=

USA.gov is the U.S. government's official web portal to all federal, state and local government web resources and services.